Latest Weather Observations for Scone Airport

IDN60801

Issued at 11:03 pm EST Sunday 24 May 2015 (issued every 30 minutes, with the page automatically refreshed every 10 minutes)

About weather observations | Map of weather stations | Latest weather observations for NSW | Other Formats
Station Details ID: 061363 Name: SCONE AIRPORT AWS Lat: -32.03 Lon: 150.83 Height: 221.4 m
Data from the previous 72 hours. | See also: Recent months at Scone Airport
Date/Time
EST
Temp
°C
App
Temp
°C
Dew
Point
Rel
Hum
%
Delta-T
°C
Wind Press
QNH
hPa
Press
MSL
hPa
Rain
since 9 am
mm
Dir
 
Spd
km/h
Gust
km/h
Spd
kts
Gust
kts
24/11:00pm 6.5 5.6 5.9 96 0.3 CALM 0 0 0 0 1032.0 1031.9 -
24/10:30pm 7.2 4.8 6.9 98 0.1 WNW 9 13 5 7 1032.1 1032.0 0.2
24/10:00pm 6.7 5.8 6.1 96 0.3 CALM 0 6 0 3 1032.1 1032.0 0.2
24/09:30pm 7.3 6.1 6.6 95 0.3 N 2 6 1 3 1032.1 1032.0 0.2
24/09:00pm 8.0 7.3 7.1 94 0.4 CALM 0 0 0 0 1032.0 1031.9 0.2
24/08:30pm 8.2 7.1 6.8 91 0.7 WNW 2 6 1 3 1032.1 1032.0 0.2
24/08:00pm 9.4 8.9 7.7 89 0.8 CALM 0 0 0 0 1031.8 1031.7 0.2
24/07:30pm 9.1 8.3 6.7 85 1.1 CALM 0 6 0 3 1031.6 1031.5 0.2
24/07:00pm 10.0 9.2 6.7 80 1.6 CALM 0 0 0 0 1031.3 1031.2 0.2
24/06:30pm 12.0 9.6 7.1 72 2.4 SSW 9 11 5 6 1030.7 1030.7 0.2
24/06:00pm 12.2 9.2 7.5 73 2.3 SSW 13 13 7 7 1030.4 1030.4 0.2
24/05:30pm 12.4 9.8 7.9 74 2.2 SSW 11 13 6 7 1030.2 1030.2 0.2
24/05:00pm 12.9 10.0 8.2 73 2.3 SSE 13 15 7 8 1030.1 1030.1 0.2
24/04:30pm 14.3 11.4 8.3 67 3.0 SSE 13 15 7 8 1030.1 1030.1 0.2
24/04:00pm 15.9 13.1 8.4 61 3.8 S 13 17 7 9 1030.0 1030.0 0.2
24/03:30pm 16.4 13.5 8.1 58 4.2 SSE 13 17 7 9 1030.0 1030.0 0.2
24/03:00pm 16.6 13.3 8.1 57 4.3 SSE 15 19 8 10 1029.8 1029.8 0.2
24/02:30pm 16.8 13.4 7.7 55 4.6 SSE 15 19 8 10 1029.8 1029.8 0.2
24/02:00pm 16.8 14.2 7.7 55 4.6 SSE 11 19 6 10 1029.8 1029.8 0.2
24/01:30pm 16.2 13.4 6.9 54 4.6 SSE 11 17 6 9 1030.0 1030.0 0.2
24/01:00pm 15.9 13.1 6.9 55 4.4 S 11 15 6 8 1030.3 1030.3 0.2
24/12:30pm 15.0 13.4 8.9 67 3.1 S 7 11 4 6 1030.5 1030.5 0.2
24/12:00pm 14.3 13.0 11.3 82 1.6 SSE 9 13 5 7 1031.1 1031.0 0.0
24/11:30am 13.1 12.0 10.5 84 1.4 SSE 7 11 4 6 1031.7 1031.6 0.0
24/10:30am 10.9 11.1 10.7 99 0.1 CALM 0 6 0 3 1032.4 1032.4 0.0
24/09:30am 8.4 6.9 8.3 99 0.0 NE 6 7 3 4 1032.6 1032.6 0.0
24/09:00am 8.2 7.0 8.1 99 0.0 NNE 4 7 2 4 1032.4 1032.4 0.2
24/08:30am 7.5 6.9 7.4 99 0.0 CALM 0 0 0 0 1032.3 1032.2 0.2
24/08:00am 6.0 4.7 5.9 99 0.0 WNW 2 7 1 4 1032.0 1031.9 0.2
24/07:30am 5.2 2.8 5.1 99 0.0 WSW 7 9 4 5 1031.8 1031.7 0.2
24/07:00am 5.8 4.8 5.7 99 0.0 CALM 0 0 0 0 1031.6 1031.5 0.2
24/06:30am 4.8 3.6 4.7 99 0.0 CALM 0 0 0 0 1031.3 1031.2 0.2
24/05:30am 3.9 2.5 3.8 99 0.0 CALM 0 0 0 0 1030.5 1030.5 0.2
24/05:00am 3.7 2.3 3.6 99 0.0 CALM 0 0 0 0 1030.2 1030.2 0.2
24/04:30am 4.0 2.7 3.9 99 0.0 CALM 0 0 0 0 1030.1 1030.1 0.2
24/04:00am 4.1 2.8 4.0 99 0.0 CALM 0 0 0 0 1029.7 1029.7 0.2
24/03:30am 3.8 2.4 3.7 99 0.0 CALM 0 4 0 2 1029.4 1029.4 0.2
24/03:00am 3.7 2.3 3.6 99 0.0 CALM 0 0 0 0 1029.3 1029.3 0.2
24/02:30am 4.5 1.6 4.4 99 0.0 WNW 9 13 5 7 1029.1 1029.1 0.2
24/02:00am 4.9 3.4 4.8 99 0.0 NW 2 7 1 4 1029.1 1029.1 0.2
24/01:30am 4.7 3.5 4.6 99 0.0 CALM 0 0 0 0 1029.2 1029.2 0.2
24/01:00am 5.1 4.0 5.0 99 0.0 CALM 0 0 0 0 1029.2 1029.2 0.2
24/12:30am 5.1 3.9 4.8 98 0.1 CALM 0 0 0 0 1029.2 1029.2 0.2
24/12:00am 6.1 5.2 6.0 99 0.0 CALM 0 0 0 0 1029.2 1029.2 0.2
 
Date/Time
EST
Temp
°C
App
Temp
°C
Dew
Point
Rel
Hum
%
Delta-T
°C
Wind Press
QNH
hPa
Press
MSL
hPa
Rain
since 9 am
mm
Dir
 
Spd
km/h
Gust
km/h
Spd
kts
Gust
kts
23/11:30pm 5.9 4.9 5.5 97 0.2 CALM 0 0 0 0 1029.2 1029.2 0.2
23/11:00pm 6.1 5.1 5.7 97 0.2 CALM 0 0 0 0 1029.2 1029.2 0.2
23/10:30pm 6.7 5.9 6.4 98 0.1 CALM 0 0 0 0 1029.2 1029.2 0.2
23/10:00pm 7.3 6.6 7.0 98 0.1 CALM 0 0 0 0 1029.3 1029.3 0.2
23/09:30pm 7.5 6.8 7.1 97 0.2 CALM 0 0 0 0 1029.5 1029.5 0.2
23/09:00pm 7.9 6.2 7.5 97 0.2 NW 6 9 3 5 1029.5 1029.5 0.2
23/08:30pm 8.5 7.3 7.9 96 0.3 WNW 4 9 2 5 1029.2 1029.2 0.2
23/08:00pm 8.7 8.1 7.5 92 0.6 CALM 0 2 0 1 1029.0 1029.0 0.2
23/07:30pm 9.8 8.9 7.9 88 0.9 SE 2 7 1 4 1028.7 1028.7 0.2
23/07:00pm 10.8 10.5 8.6 86 1.1 CALM 0 0 0 0 1028.7 1028.7 0.2
23/06:30pm 10.8 9.9 7.9 82 1.4 SW 2 9 1 5 1028.5 1028.4 0.2
23/06:00pm 12.5 10.7 9.3 81 1.6 S 9 11 5 6 1028.3 1028.2 0.2
23/05:30pm 12.8 10.9 8.9 77 2.0 SSE 9 11 5 6 1028.1 1028.0 0.2
23/05:00pm 15.2 15.3 10.0 71 2.7 CALM 0 4 0 2 1027.9 1027.8 0.2
23/04:30pm 16.5 15.6 9.4 63 3.7 NNE 4 7 2 4 1027.6 1027.5 0.2
23/04:00pm 16.9 16.3 9.1 60 4.1 NE 2 7 1 4 1027.5 1027.4 0.2
23/03:30pm 16.6 15.2 8.8 60 4.1 ESE 6 9 3 5 1027.4 1027.3 0.2
23/03:00pm 16.9 15.5 9.6 62 3.8 SE 7 13 4 7 1027.3 1027.2 0.2
23/02:30pm 16.8 16.6 10.6 67 3.3 SW 2 11 1 6 1027.4 1027.3 0.2
23/02:00pm 15.3 15.0 8.8 65 3.3 CALM 0 4 0 2 1027.5 1027.4 0.2
23/01:30pm 15.1 14.7 9.7 70 2.8 SSE 2 6 1 3 1027.5 1027.4 0.2
23/01:00pm 14.9 14.0 10.5 75 2.3 NE 6 9 3 5 1027.7 1027.6 0.2
23/12:30pm 14.4 13.5 9.2 71 2.7 WNW 4 9 2 5 1028.0 1027.9 0.2
23/12:00pm 13.5 12.7 9.7 78 2.0 WNW 4 9 2 5 1028.5 1028.4 0.2
23/11:30am 12.5 11.5 10.2 86 1.2 N 6 9 3 5 1028.9 1028.9 0.2
23/11:00am 12.2 11.1 9.9 86 1.2 SE 6 11 3 6 1029.1 1029.1 0.2
23/10:30am 11.8 10.3 10.5 92 0.7 SE 9 13 5 7 1029.3 1029.3 0.2
23/10:00am 11.1 9.2 10.6 97 0.3 ESE 11 17 6 9 1029.3 1029.3 0.2
23/09:30am 10.9 8.2 10.4 97 0.3 SE 15 20 8 11 1029.2 1029.2 0.0
23/09:00am 11.3 8.7 10.7 96 0.3 SSE 15 19 8 10 1028.9 1028.9 5.8
23/08:30am 11.0 9.6 10.8 99 0.1 SSE 9 13 5 7 1028.5 1028.4 5.4
23/08:00am 10.9 9.4 10.7 99 0.1 SSW 9 13 5 7 1027.9 1027.8 5.4
23/07:30am 10.7 9.8 10.5 99 0.1 S 6 9 3 5 1027.6 1027.5 5.4
23/07:00am 10.7 9.6 10.5 99 0.1 S 7 9 4 5 1027.2 1027.1 5.2
23/06:30am 10.6 9.0 10.3 98 0.2 S 9 13 5 7 1026.6 1026.5 5.2
23/06:00am 10.8 9.2 10.3 97 0.3 S 9 15 5 8 1026.3 1026.2 5.2
23/05:30am 10.8 9.2 10.2 96 0.3 SSE 9 11 5 6 1025.9 1025.9 5.2
23/05:00am 10.8 8.7 9.9 94 0.5 SSE 11 13 6 7 1025.7 1025.7 5.2
23/04:30am 10.8 9.6 9.7 93 0.6 S 6 7 3 4 1025.8 1025.8 5.2
23/04:00am 10.9 9.1 9.5 91 0.7 SSW 9 11 5 6 1025.5 1025.5 5.0
23/03:30am 11.0 10.6 9.6 91 0.7 SE 2 6 1 3 1025.3 1025.3 5.0
23/03:00am 11.0 9.3 9.8 92 0.6 SE 9 11 5 6 1025.4 1025.4 5.0
23/02:30am 10.9 9.6 10.0 94 0.5 SE 7 9 4 5 1025.6 1025.6 5.0
23/02:00am 10.8 10.8 9.9 94 0.5 CALM 0 0 0 0 1025.8 1025.8 5.0
23/01:30am 11.0 9.7 9.9 93 0.6 SSE 7 9 4 5 1026.2 1026.1 5.0
23/01:00am 10.9 9.2 9.7 92 0.6 SSE 9 11 5 6 1026.2 1026.1 5.0
23/12:30am 11.0 9.2 9.6 91 0.7 SSE 9 13 5 7 1026.2 1026.1 5.0
23/12:00am 11.2 9.4 9.3 88 1.0 SSE 9 13 5 7 1025.9 1025.9 5.0
 
Date/Time
EST
Temp
°C
App
Temp
°C
Dew
Point
Rel
Hum
%
Delta-T
°C
Wind Press
QNH
hPa
Press
MSL
hPa
Rain
since 9 am
mm
Dir
 
Spd
km/h
Gust
km/h
Spd
kts
Gust
kts
22/11:30pm 11.5 10.0 9.2 86 1.2 SSW 7 11 4 6 1025.8 1025.8 5.0
22/11:00pm 11.5 9.7 9.6 88 1.0 S 9 11 5 6 1026.1 1026.0 5.0
22/10:30pm 11.6 9.4 9.5 87 1.1 S 11 15 6 8 1025.8 1025.8 5.0
22/10:00pm 11.9 9.3 9.5 85 1.2 S 13 17 7 9 1025.7 1025.7 5.0
22/09:30pm 12.0 9.0 9.4 84 1.3 S 15 20 8 11 1025.4 1025.4 5.0
22/09:00pm 12.0 9.4 9.4 84 1.3 S 13 19 7 10 1025.2 1025.2 5.0
22/08:30pm 11.7 9.5 9.3 85 1.2 S 11 15 6 8 1025.0 1025.0 5.0
22/08:00pm 11.3 8.9 8.7 84 1.3 SSW 11 17 6 9 1024.6 1024.5 5.0
22/07:30pm 10.6 7.2 7.8 83 1.4 S 15 17 8 9 1024.2 1024.1 5.0
22/07:00pm 11.0 8.4 7.7 80 1.6 S 11 15 6 8 1023.7 1023.6 5.0
22/06:30pm 12.3 12.0 8.6 78 1.9 CALM 0 9 0 5 1023.2 1023.1 5.0
22/06:00pm 12.4 10.4 8.7 78 1.9 S 9 11 5 6 1022.8 1022.7 5.0
22/05:30pm 12.9 9.8 8.8 76 2.1 S 15 19 8 10 1022.3 1022.2 5.0
22/05:00pm 13.0 10.4 9.4 79 1.8 S 13 17 7 9 1021.8 1021.7 5.0
22/04:30pm 13.4 9.8 9.8 79 1.9 S 19 22 10 12 1021.0 1021.0 5.0
22/04:00pm 13.5 10.1 10.7 83 1.5 SSE 19 24 10 13 1020.6 1020.5 5.0
22/03:30pm 13.0 9.5 10.9 87 1.1 S 20 26 11 14 1020.4 1020.3 5.0
22/03:00pm 12.8 7.1 11.0 89 1.0 S 32 44 17 24 1019.8 1019.7 5.0
22/02:55pm 13.0 8.1 11.4 90 0.9 S 28 41 15 22 1019.7 1019.6 5.0
22/02:30pm 13.5 11.2 11.9 90 0.9 SSW 15 20 8 11 1019.3 1019.2 4.2
22/02:00pm 13.4 11.9 12.0 91 0.8 SSW 11 17 6 9 1018.9 1018.8 3.8
22/01:30pm 13.3 10.6 11.7 90 0.9 SSW 17 24 9 13 1018.8 1018.7 3.2
22/01:00pm 13.3 11.0 11.7 90 0.9 SSW 15 20 8 11 1018.6 1018.5 2.4
22/12:30pm 13.4 11.0 11.5 88 1.0 SW 15 24 8 13 1018.2 1018.1 1.4
22/12:00pm 13.7 11.7 11.4 86 1.2 SW 13 19 7 10 1018.3 1018.2 0.8
22/11:30am 14.0 11.0 10.8 81 1.7 W 17 20 9 11 1018.1 1018.0 0.0
22/11:00am 13.2 11.6 11.6 90 0.9 WSW 11 17 6 9 1018.4 1018.3 0.0
22/10:30am 12.9 11.1 10.8 87 1.1 NW 11 15 6 8 1018.3 1018.2 0.0
22/10:00am 12.9 11.6 11.3 90 0.9 NNW 9 13 5 7 1018.3 1018.2 0.0
22/09:30am 12.5 10.4 11.2 92 0.7 NW 13 17 7 9 1018.1 1018.0 0.0
22/09:00am 12.3 11.1 11.7 96 0.3 NNW 9 13 5 7 1017.9 1017.8 24.4
22/08:30am 11.8 10.5 11.3 97 0.3 NNW 9 13 5 7 1017.7 1017.6 24.4
22/08:00am 11.7 10.5 11.5 99 0.1 NW 9 11 5 6 1017.4 1017.3 24.4
22/07:30am 11.5 10.2 11.3 99 0.1 NW 9 11 5 6 1017.2 1017.1 24.4
22/07:00am 11.4 10.1 11.2 99 0.1 NNW 9 13 5 7 1017.0 1016.8 23.8
22/06:30am 11.4 10.6 11.2 99 0.1 NNW 6 11 3 6 1016.7 1016.5 23.8
22/06:00am 11.4 10.1 11.2 99 0.1 NNW 9 11 5 6 1016.3 1016.2 23.6
22/05:30am 11.2 10.2 11.0 99 0.1 NNW 7 9 4 5 1016.1 1016.0 23.2
22/05:00am 11.4 10.1 11.2 99 0.1 NW 9 13 5 7 1016.1 1016.0 20.4
22/04:30am 11.5 10.6 11.3 99 0.1 WNW 7 7 4 4 1016.2 1016.1 17.4
22/04:00am 11.5 11.9 11.3 99 0.1 CALM 0 0 0 0 1016.1 1016.0 16.6
22/03:30am 11.5 10.8 11.3 99 0.1 NE 6 9 3 5 1016.2 1016.1 16.6
22/03:00am 11.5 10.2 11.3 99 0.1 NNW 9 13 5 7 1016.3 1016.2 16.6
22/02:30am 11.4 10.1 11.2 99 0.1 NW 9 13 5 7 1016.4 1016.3 16.6
22/02:00am 11.4 10.5 11.2 99 0.1 NW 7 7 4 4 1016.7 1016.5 16.4
22/01:30am 11.3 11.7 11.1 99 0.1 CALM 0 0 0 0 1016.7 1016.5 16.4
22/01:00am 11.4 11.8 11.2 99 0.1 CALM 0 0 0 0 1017.1 1017.0 16.4
22/12:30am 11.4 11.8 11.2 99 0.1 CALM 0 0 0 0 1017.4 1017.3 16.4
22/12:00am 11.6 11.3 11.4 99 0.1 SE 4 6 2 3 1017.6 1017.5 16.2
 
Date/Time
EST
Temp
°C
App
Temp
°C
Dew
Point
Rel
Hum
%
Delta-T
°C
Wind Press
QNH
hPa
Press
MSL
hPa
Rain
since 9 am
mm
Dir
 
Spd
km/h
Gust
km/h
Spd
kts
Gust
kts
21/11:30pm 11.6 11.7 11.4 99 0.1 NE 2 7 1 4 1018.0 1017.9 15.6

Other Formats:

Comma delimited format used in spreadsheet applications
http://www.bom.gov.au/fwo/IDN60801/IDN60801.95758.axf

JavaScript Object Notation format (JSON) in row-major order
http://www.bom.gov.au/fwo/IDN60801/IDN60801.95758.json